Governor's Harbour, The Bahamas
Current Conditions -  °F | °C
As of 5:00 PM on Wednesday 26 Nov 2014 (Local Time) from MYNN Reporting Station
Rain Showers Rain Showers  
Wind Chill: 84°   Ceiling: Unl
Heat Index: 96°   Visibility: 6mi
Dew Point: 79°   Wind: 8mph
Humidity: 84%   Direction: 170°S
Pressure: 30.02"   Gusts: NA
Location:  25.17°N, 76.23°W
Report Text: MYNN 262100Z 17007KT 9999 VCSH SCT017TCU SCT040 29/26 A3002
Loading
Personal Weather Stations






























Interactive Weather Map New forecast layout! Learn more

10-Day Weather Forecast

Advertisements
Track Severe Weather on mobile